createdAt,value
2023-03-16T00:02:09.311Z,-1.80
2023-03-16T00:04:38.989Z,-1.80
2023-03-16T00:07:10.608Z,-1.80
2023-03-16T00:09:41.192Z,-1.90
2023-03-16T00:12:15.876Z,-1.90
2023-03-16T00:14:47.063Z,-1.90
2023-03-16T00:17:19.314Z,-1.90
2023-03-16T00:19:54.968Z,-1.90
2023-03-16T00:22:23.234Z,-1.90
2023-03-16T00:24:50.135Z,-2.00
2023-03-16T00:27:17.420Z,-1.90
2023-03-16T00:29:48.342Z,-2.00
2023-03-16T00:32:19.263Z,-2.00
2023-03-16T00:34:47.571Z,-2.00
2023-03-16T00:37:17.558Z,-2.00
2023-03-16T00:39:45.295Z,-2.10
2023-03-16T00:42:14.399Z,-2.10
2023-03-16T00:44:44.140Z,-2.10
2023-03-16T00:47:14.495Z,-2.20
2023-03-16T00:49:44.881Z,-2.20
2023-03-16T00:52:15.852Z,-2.20
2023-03-16T00:54:43.556Z,-2.20
2023-03-16T00:57:12.031Z,-2.20
2023-03-16T00:59:38.788Z,-2.20
2023-03-16T01:02:06.749Z,-2.20
2023-03-16T01:04:35.842Z,-2.30
2023-03-16T01:07:03.641Z,-2.30
2023-03-16T01:09:31.216Z,-2.30
2023-03-16T01:11:58.157Z,-2.30
2023-03-16T01:14:24.851Z,-2.30
2023-03-16T01:16:52.305Z,-2.30
2023-03-16T01:19:19.043Z,-2.30
2023-03-16T01:21:46.177Z,-2.30
2023-03-16T01:24:13.092Z,-2.30
2023-03-16T01:26:40.259Z,-2.30
2023-03-16T01:29:07.163Z,-2.30
2023-03-16T01:31:34.130Z,-2.30
2023-03-16T01:34:02.773Z,-2.30
2023-03-16T01:36:30.338Z,-2.30
2023-03-16T01:39:02.436Z,-2.30
2023-03-16T01:41:35.139Z,-2.30
2023-03-16T01:44:02.080Z,-2.30
2023-03-16T01:46:30.142Z,-2.30
2023-03-16T01:49:10.531Z,-2.40
2023-03-16T01:51:43.932Z,-2.40
2023-03-16T01:54:17.843Z,-2.40
2023-03-16T01:56:56.758Z,-2.40
2023-03-16T01:59:26.280Z,-2.40
2023-03-16T02:01:53.291Z,-2.40
2023-03-16T02:04:57.705Z,-2.40
2023-03-16T02:07:26.596Z,-2.40
2023-03-16T02:09:56.182Z,-2.40
2023-03-16T02:12:23.815Z,-2.40
2023-03-16T02:14:54.672Z,-2.40
2023-03-16T02:17:23.858Z,-2.40
2023-03-16T02:19:59.163Z,-2.40
2023-03-16T02:22:27.463Z,-2.50
2023-03-16T02:24:55.248Z,-2.50
2023-03-16T02:27:45.603Z,-2.50
2023-03-16T02:30:16.939Z,-2.50
2023-03-16T02:32:59.791Z,-2.50
2023-03-16T02:35:26.852Z,-2.50
2023-03-16T02:37:54.879Z,-2.60
2023-03-16T02:40:26.306Z,-2.50
2023-03-16T02:43:09.827Z,-2.60
2023-03-16T02:45:53.168Z,-2.60
2023-03-16T02:48:51.452Z,-2.60
2023-03-16T02:51:19.547Z,-2.60
2023-03-16T02:53:46.629Z,-2.60
2023-03-16T02:56:15.670Z,-2.60
2023-03-16T02:58:42.936Z,-2.60
2023-03-16T03:01:16.715Z,-2.60
2023-03-16T03:03:43.842Z,-2.60
2023-03-16T03:06:11.200Z,-2.60
2023-03-16T03:08:38.670Z,-2.60
2023-03-16T03:11:05.535Z,-2.60
2023-03-16T03:13:32.358Z,-2.60
2023-03-16T03:15:59.266Z,-2.50
2023-03-16T03:18:28.290Z,-2.50
2023-03-16T03:20:55.244Z,-2.40
2023-03-16T03:23:21.982Z,-2.40
2023-03-16T03:25:48.794Z,-2.40
2023-03-16T03:28:17.050Z,-2.40
2023-03-16T03:30:45.031Z,-2.40
2023-03-16T03:33:12.911Z,-2.40
2023-03-16T03:35:39.650Z,-2.40
2023-03-16T03:38:08.155Z,-2.40
2023-03-16T03:40:35.345Z,-2.40
2023-03-16T03:43:04.142Z,-2.40
2023-03-16T03:45:33.292Z,-2.40
2023-03-16T03:48:00.510Z,-2.40
2023-03-16T03:50:27.361Z,-2.40
2023-03-16T03:53:23.620Z,-2.40
2023-03-16T03:56:15.328Z,-2.40
2023-03-16T03:58:42.009Z,-2.40
2023-03-16T04:01:09.737Z,-2.40
2023-03-16T04:03:36.913Z,-2.50
2023-03-16T04:06:08.127Z,-2.40
2023-03-16T04:08:36.264Z,-2.40
2023-03-16T04:11:09.806Z,-2.40
2023-03-16T04:13:36.665Z,-2.40
2023-03-16T04:16:04.785Z,-2.40
2023-03-16T04:18:41.517Z,-2.40
2023-03-16T04:21:13.659Z,-2.40
2023-03-16T04:23:42.553Z,-2.40
2023-03-16T04:26:09.599Z,-2.40
2023-03-16T04:28:36.777Z,-2.30
2023-03-16T04:31:05.436Z,-2.30
2023-03-16T04:33:37.166Z,-2.30
2023-03-16T04:36:04.762Z,-2.30
2023-03-16T04:38:36.119Z,-2.40
2023-03-16T04:41:04.442Z,-2.40
2023-03-16T04:43:38.112Z,-2.50
2023-03-16T04:46:18.580Z,-2.50
2023-03-16T04:48:45.400Z,-2.60
2023-03-16T04:51:12.421Z,-2.60
2023-03-16T04:53:44.783Z,-2.60
2023-03-16T04:56:23.498Z,-2.60
2023-03-16T04:58:56.993Z,-2.60
2023-03-16T05:01:25.983Z,-2.70
2023-03-16T05:03:59.615Z,-2.70
2023-03-16T05:06:28.952Z,-2.60
2023-03-16T05:08:58.901Z,-2.60
2023-03-16T05:11:25.694Z,-2.60
2023-03-16T05:13:57.119Z,-2.60
2023-03-16T05:16:24.961Z,-2.50
2023-03-16T05:18:53.015Z,-2.50
2023-03-16T05:21:20.145Z,-2.50
2023-03-16T05:24:07.670Z,-2.40
2023-03-16T05:26:34.815Z,-2.40
2023-03-16T05:29:02.373Z,-2.40
2023-03-16T05:31:33.705Z,-2.40
2023-03-16T05:34:03.120Z,-2.30
2023-03-16T05:36:30.019Z,-2.30
2023-03-16T05:39:04.541Z,-2.30
2023-03-16T05:41:37.586Z,-2.30
2023-03-16T05:44:23.127Z,-2.20
2023-03-16T05:47:10.190Z,-2.20
2023-03-16T05:49:42.241Z,-2.10
2023-03-16T05:52:20.943Z,-2.10
2023-03-16T05:54:47.696Z,-2.00
2023-03-16T05:57:14.727Z,-2.00
2023-03-16T05:59:44.561Z,-2.00
2023-03-16T06:02:12.243Z,-1.90
2023-03-16T06:04:39.386Z,-1.80
2023-03-16T06:07:06.617Z,-1.70
2023-03-16T06:09:34.502Z,-1.60
2023-03-16T06:12:04.350Z,-1.50
2023-03-16T06:14:32.007Z,-1.40
2023-03-16T06:16:59.500Z,-1.30
2023-03-16T06:19:26.362Z,-1.20
2023-03-16T06:21:58.486Z,-1.10
2023-03-16T06:24:25.568Z,-1.00
2023-03-16T06:26:52.254Z,-0.90
2023-03-16T06:29:21.150Z,-0.80
2023-03-16T06:31:47.924Z,-0.70
2023-03-16T06:34:14.903Z,-0.50
2023-03-16T06:36:41.616Z,-0.40
2023-03-16T06:39:12.240Z,-0.20
2023-03-16T06:41:45.992Z,-0.10
2023-03-16T06:44:15.310Z,0.10
2023-03-16T06:46:52.638Z,0.30
2023-03-16T06:49:19.397Z,0.50
2023-03-16T06:51:47.121Z,0.70
2023-03-16T06:54:14.899Z,0.90
2023-03-16T06:56:41.857Z,1.20
2023-03-16T06:59:08.887Z,1.40
2023-03-16T07:01:37.372Z,1.60
2023-03-16T07:04:04.195Z,1.70
2023-03-16T07:06:33.922Z,1.80
2023-03-16T07:09:02.090Z,2.00
2023-03-16T07:11:31.162Z,2.20
2023-03-16T07:13:58.733Z,2.20
2023-03-16T07:16:27.353Z,2.20
2023-03-16T07:18:56.578Z,2.30
2023-03-16T07:21:23.705Z,2.50
2023-03-16T07:23:51.849Z,2.60
2023-03-16T07:26:24.320Z,2.60
2023-03-16T07:28:57.989Z,2.70
2023-03-16T07:31:25.472Z,2.80
2023-03-16T07:33:53.515Z,2.90
2023-03-16T07:36:30.316Z,3.00
2023-03-16T07:39:01.245Z,3.10
2023-03-16T07:41:28.202Z,3.20
2023-03-16T07:46:49.723Z,3.40
2023-03-16T07:49:17.098Z,3.50
2023-03-16T07:51:45.463Z,3.40
2023-03-16T07:54:14.024Z,3.50
2023-03-16T07:56:48.727Z,3.50
2023-03-16T07:59:26.514Z,3.70
2023-03-16T08:01:53.324Z,3.90
2023-03-16T08:04:20.247Z,4.00
2023-03-16T08:06:47.882Z,4.10
2023-03-16T08:09:14.787Z,4.20
2023-03-16T08:11:41.944Z,4.40
2023-03-16T08:14:08.831Z,4.60
2023-03-16T08:17:01.980Z,4.70
2023-03-16T08:19:29.701Z,4.90
2023-03-16T08:22:05.878Z,5.00
2023-03-16T08:24:39.445Z,5.20
2023-03-16T08:27:08.664Z,5.30
2023-03-16T08:29:38.290Z,5.60
2023-03-16T08:32:07.358Z,5.80
2023-03-16T08:34:40.091Z,6.00
2023-03-16T08:37:08.220Z,6.20
2023-03-16T08:39:35.832Z,6.50
2023-03-16T08:42:08.403Z,7.00
2023-03-16T08:44:45.291Z,7.50
2023-03-16T08:47:12.343Z,8.00
2023-03-16T08:49:42.470Z,8.70
2023-03-16T08:52:13.243Z,9.40
2023-03-16T08:54:47.108Z,10.10
2023-03-16T08:57:19.585Z,10.60
2023-03-16T08:59:46.224Z,11.30
2023-03-16T09:02:14.258Z,12.20
2023-03-16T09:04:41.074Z,13.00
2023-03-16T09:07:09.769Z,13.30
2023-03-16T09:09:36.755Z,13.60
2023-03-16T09:12:04.265Z,14.10
2023-03-16T09:14:31.109Z,14.30
2023-03-16T09:16:58.355Z,14.60
2023-03-16T09:19:25.045Z,14.80
2023-03-16T09:21:51.650Z,14.70
2023-03-16T09:24:18.473Z,14.60
2023-03-16T09:26:45.634Z,14.70
2023-03-16T09:29:12.856Z,15.40
2023-03-16T09:31:39.534Z,15.40
2023-03-16T09:34:06.415Z,15.00
2023-03-16T09:36:33.612Z,14.90
2023-03-16T09:39:00.264Z,14.50
2023-03-16T09:41:32.850Z,14.00
2023-03-16T09:44:05.584Z,13.90
2023-03-16T09:46:35.824Z,14.00
2023-03-16T09:49:03.581Z,14.10
2023-03-16T09:51:37.998Z,14.30
2023-03-16T09:54:09.610Z,14.50
2023-03-16T09:56:39.751Z,14.70
2023-03-16T09:59:11.589Z,14.70
2023-03-16T10:01:51.069Z,14.10
2023-03-16T10:04:27.781Z,13.80
2023-03-16T10:07:03.563Z,13.50
2023-03-16T10:09:38.266Z,13.80
2023-03-16T10:12:06.223Z,14.50
2023-03-16T10:14:32.888Z,14.80
2023-03-16T10:17:19.099Z,15.10
2023-03-16T10:19:49.268Z,15.20
2023-03-16T10:22:26.551Z,15.30
2023-03-16T10:25:12.937Z,15.70
2023-03-16T10:27:42.634Z,16.80
2023-03-16T10:30:21.749Z,17.70
2023-03-16T10:32:49.412Z,18.60
2023-03-16T10:35:29.064Z,19.30
2023-03-16T10:37:57.129Z,20.80
2023-03-16T10:40:24.225Z,22.10
2023-03-16T10:42:50.893Z,21.90
2023-03-16T10:45:29.549Z,22.00
2023-03-16T10:48:12.663Z,22.10
2023-03-16T10:50:39.520Z,22.30
2023-03-16T10:53:15.100Z,22.30
2023-03-16T10:55:43.578Z,22.30
2023-03-16T10:58:10.235Z,22.30
2023-03-16T11:00:38.478Z,22.50
2023-03-16T11:03:25.903Z,22.40
2023-03-16T11:06:00.686Z,22.40
2023-03-16T11:08:30.616Z,22.30
2023-03-16T11:10:58.630Z,22.80
2023-03-16T11:13:31.111Z,23.10
2023-03-16T11:16:02.508Z,24.10
2023-03-16T11:18:43.385Z,24.80
2023-03-16T11:21:17.134Z,25.30
2023-03-16T11:23:52.680Z,25.00
2023-03-16T11:26:23.097Z,24.60
2023-03-16T11:29:09.232Z,23.70
2023-03-16T11:31:53.336Z,23.00
2023-03-16T11:34:22.127Z,22.50
2023-03-16T11:36:51.492Z,22.70
2023-03-16T11:39:31.105Z,23.10
2023-03-16T11:42:00.378Z,23.60
2023-03-16T11:44:47.093Z,23.30
2023-03-16T11:47:33.429Z,23.30
2023-03-16T11:50:19.166Z,22.90
2023-03-16T11:52:51.676Z,23.80
2023-03-16T11:55:32.282Z,23.70
2023-03-16T11:58:18.010Z,22.70
2023-03-16T12:01:07.409Z,21.70
2023-03-16T12:03:42.858Z,21.30
2023-03-16T12:06:22.152Z,20.60
2023-03-16T12:09:08.029Z,20.50
2023-03-16T12:11:46.921Z,20.60
2023-03-16T12:14:16.715Z,19.80
2023-03-16T12:17:01.157Z,19.40
2023-03-16T12:19:40.045Z,19.40
2023-03-16T12:22:25.830Z,19.50
2023-03-16T12:24:53.165Z,19.80
2023-03-16T12:27:30.142Z,20.20
2023-03-16T12:30:09.607Z,20.40
2023-03-16T12:32:45.493Z,21.00
2023-03-16T12:35:15.854Z,21.30
2023-03-16T12:37:47.279Z,21.80
2023-03-16T12:40:31.280Z,21.30
2023-03-16T12:43:06.787Z,21.00
2023-03-16T12:45:33.465Z,21.60
2023-03-16T12:48:00.156Z,22.00
2023-03-16T12:50:27.192Z,22.70
2023-03-16T12:52:53.890Z,22.20
2023-03-16T12:55:20.759Z,20.80
2023-03-16T12:57:48.908Z,20.70
2023-03-16T13:00:16.397Z,21.70
2023-03-16T13:02:45.028Z,23.20
2023-03-16T13:05:15.767Z,24.90
2023-03-16T13:07:49.903Z,26.10
2023-03-16T13:10:17.107Z,26.80
2023-03-16T13:12:43.893Z,26.60
2023-03-16T13:15:23.478Z,26.50
2023-03-16T13:17:51.684Z,26.50
2023-03-16T13:20:31.568Z,25.90
2023-03-16T13:23:18.027Z,24.90
2023-03-16T13:26:11.128Z,25.20
2023-03-16T13:28:38.800Z,25.10
2023-03-16T13:31:06.518Z,25.10
2023-03-16T13:33:36.727Z,25.00
2023-03-16T13:36:04.907Z,24.90
2023-03-16T13:38:31.620Z,26.00
2023-03-16T13:41:18.512Z,25.80
2023-03-16T13:43:46.259Z,25.50
2023-03-16T13:46:13.740Z,25.10
2023-03-16T13:48:41.764Z,24.70
2023-03-16T13:51:15.064Z,24.20
2023-03-16T13:53:42.784Z,24.30
2023-03-16T13:56:13.627Z,23.90
2023-03-16T13:58:40.614Z,21.90
2023-03-16T14:01:14.340Z,21.00
2023-03-16T14:03:43.969Z,20.80
2023-03-16T14:06:25.451Z,21.00
2023-03-16T14:08:54.155Z,20.50
2023-03-16T14:11:20.862Z,19.90
2023-03-16T14:13:54.940Z,19.10
2023-03-16T14:16:24.083Z,18.50
2023-03-16T14:18:57.577Z,18.10
2023-03-16T14:21:29.149Z,17.90
2023-03-16T14:24:04.833Z,17.50
2023-03-16T14:26:41.711Z,16.90
2023-03-16T14:29:28.406Z,16.40
2023-03-16T14:31:55.549Z,16.00
2023-03-16T14:34:35.680Z,16.00
2023-03-16T14:37:28.977Z,16.30
2023-03-16T14:40:01.742Z,16.20
2023-03-16T14:42:30.315Z,16.60
2023-03-16T14:44:58.632Z,16.80
2023-03-16T14:47:28.035Z,17.00
2023-03-16T14:49:56.051Z,17.10
2023-03-16T14:52:25.350Z,17.10
2023-03-16T14:57:45.678Z,18.10
2023-03-16T15:00:15.380Z,18.50
2023-03-16T15:02:44.618Z,19.10
2023-03-16T15:05:19.898Z,19.80
2023-03-16T15:07:47.004Z,20.20
2023-03-16T15:10:16.526Z,20.30
2023-03-16T15:12:53.866Z,20.60
2023-03-16T15:15:22.835Z,20.80
2023-03-16T15:17:51.456Z,20.60
2023-03-16T15:20:20.636Z,20.00
2023-03-16T15:22:48.683Z,19.50
2023-03-16T15:25:36.782Z,19.10
2023-03-16T15:28:23.752Z,18.70
2023-03-16T15:30:51.891Z,18.10
2023-03-16T15:33:18.836Z,17.90
2023-03-16T15:35:46.900Z,17.70
2023-03-16T15:38:15.701Z,17.80
2023-03-16T15:40:43.767Z,17.50
2023-03-16T15:43:14.276Z,17.30
2023-03-16T15:45:41.217Z,17.20
2023-03-16T15:48:10.446Z,17.20
2023-03-16T15:50:39.062Z,17.40
2023-03-16T15:53:09.059Z,18.00
2023-03-16T15:55:37.633Z,18.10
2023-03-16T15:58:05.491Z,18.30
2023-03-16T16:00:37.335Z,18.20
2023-03-16T16:03:04.955Z,17.90
2023-03-16T16:05:31.809Z,17.70
2023-03-16T16:07:59.223Z,17.30
2023-03-16T16:10:26.819Z,17.10
2023-03-16T16:12:54.633Z,16.60
2023-03-16T16:15:21.741Z,16.00
2023-03-16T16:18:14.495Z,15.40
2023-03-16T16:20:35.945Z,14.90
2023-03-16T16:23:03.297Z,14.40
2023-03-16T16:25:36.316Z,14.00
2023-03-16T16:28:06.473Z,13.60
2023-03-16T16:30:33.153Z,13.30
2023-03-16T16:32:59.962Z,13.10
2023-03-16T16:35:28.214Z,12.80
2023-03-16T16:37:55.408Z,12.60
2023-03-16T16:40:23.394Z,12.50
2023-03-16T16:42:51.947Z,12.40
2023-03-16T16:45:20.225Z,12.30
2023-03-16T16:47:48.019Z,12.20
2023-03-16T16:50:18.165Z,12.10
2023-03-16T16:52:44.958Z,12.10
2023-03-16T16:55:11.971Z,12.00
2023-03-16T16:57:38.723Z,11.80
2023-03-16T17:00:08.921Z,11.70
2023-03-16T17:02:43.414Z,11.60
2023-03-16T17:05:17.995Z,11.50
2023-03-16T17:07:44.674Z,11.50
2023-03-16T17:10:19.007Z,11.30
2023-03-16T17:12:46.044Z,11.20
2023-03-16T17:15:24.422Z,11.10
2023-03-16T17:17:51.917Z,11.00
2023-03-16T17:20:25.319Z,10.90
2023-03-16T17:22:52.825Z,10.80
2023-03-16T17:25:19.574Z,10.70
2023-03-16T17:27:48.426Z,10.60
2023-03-16T17:30:23.390Z,10.50
2023-03-16T17:32:51.117Z,10.40
2023-03-16T17:35:18.719Z,10.30
2023-03-16T17:37:47.852Z,10.20
2023-03-16T17:40:22.841Z,10.10
2023-03-16T17:42:50.106Z,10.00
2023-03-16T17:45:21.567Z,10.00
2023-03-16T17:47:50.056Z,9.90
2023-03-16T17:50:19.952Z,9.80
2023-03-16T17:52:53.123Z,9.70
2023-03-16T17:55:22.801Z,9.60
2023-03-16T17:57:50.729Z,9.50
2023-03-16T18:00:26.986Z,9.50
2023-03-16T18:03:09.725Z,9.40
2023-03-16T18:05:37.575Z,9.30
2023-03-16T18:08:15.579Z,9.20
2023-03-16T18:10:44.202Z,9.10
2023-03-16T18:13:17.040Z,9.00
2023-03-16T18:15:45.693Z,8.90
2023-03-16T18:18:16.428Z,8.80
2023-03-16T18:20:45.028Z,8.80
2023-03-16T18:23:22.711Z,8.70
2023-03-16T18:25:51.154Z,8.60
2023-03-16T18:28:18.702Z,8.50
2023-03-16T18:30:48.160Z,8.50
2023-03-16T18:33:30.573Z,8.40
2023-03-16T18:36:04.616Z,8.30
2023-03-16T18:41:54.541Z,8.20
2023-03-16T18:44:31.183Z,8.20
2023-03-16T18:47:02.893Z,8.10
2023-03-16T18:49:32.729Z,8.10
2023-03-16T18:52:05.000Z,8.00
2023-03-16T18:54:35.205Z,8.00
2023-03-16T18:57:04.452Z,7.90
2023-03-16T18:59:32.356Z,7.90
2023-03-16T19:02:07.055Z,7.90
2023-03-16T19:04:36.391Z,7.80
2023-03-16T19:07:22.176Z,7.80
2023-03-16T19:09:48.858Z,7.80
2023-03-16T19:12:16.202Z,7.70
2023-03-16T19:14:42.867Z,7.70
2023-03-16T19:17:09.596Z,7.70
2023-03-16T19:19:36.551Z,7.60
2023-03-16T19:22:09.620Z,7.60
2023-03-16T19:24:42.314Z,7.60
2023-03-16T19:27:17.121Z,7.60
2023-03-16T19:29:43.882Z,7.60
2023-03-16T19:32:16.205Z,7.60
2023-03-16T19:34:43.163Z,7.50
2023-03-16T19:37:13.403Z,7.50
2023-03-16T19:39:41.039Z,7.50
2023-03-16T19:42:28.832Z,7.50
2023-03-16T19:44:56.108Z,7.40
2023-03-16T19:47:22.748Z,7.40
2023-03-16T19:49:49.401Z,7.30
2023-03-16T19:52:16.478Z,7.20
2023-03-16T19:54:44.270Z,7.20
2023-03-16T19:57:15.710Z,7.20
2023-03-16T19:59:43.735Z,7.10
2023-03-16T20:02:26.527Z,7.10
2023-03-16T20:04:54.650Z,7.10
2023-03-16T20:07:21.925Z,7.00
2023-03-16T20:09:48.559Z,7.00
2023-03-16T20:12:18.359Z,7.00
2023-03-16T20:14:45.106Z,6.90
2023-03-16T20:17:13.591Z,6.90
2023-03-16T20:19:40.490Z,6.80
2023-03-16T20:22:17.443Z,6.80
2023-03-16T20:24:44.627Z,6.80
2023-03-16T20:27:12.520Z,6.70
2023-03-16T20:29:39.226Z,6.60
2023-03-16T20:32:08.155Z,6.60
2023-03-16T20:34:34.841Z,6.50
2023-03-16T20:37:01.800Z,6.50
2023-03-16T20:39:28.552Z,6.50
2023-03-16T20:41:55.490Z,6.50
2023-03-16T20:44:25.314Z,6.50
2023-03-16T20:46:52.288Z,6.40
2023-03-16T20:49:21.877Z,6.40
2023-03-16T20:51:49.528Z,6.30
2023-03-16T20:54:16.627Z,6.30
2023-03-16T20:56:43.690Z,6.20
2023-03-16T20:59:14.546Z,6.20
2023-03-16T21:01:45.393Z,6.10
2023-03-16T21:04:22.796Z,6.10
2023-03-16T21:06:50.900Z,6.00
2023-03-16T21:09:18.693Z,6.00
2023-03-16T21:11:45.676Z,6.00
2023-03-16T21:14:23.011Z,6.10
2023-03-16T21:16:50.184Z,6.10
2023-03-16T21:19:18.964Z,6.10
2023-03-16T21:21:46.361Z,6.20
2023-03-16T21:24:12.964Z,6.10
2023-03-16T21:26:40.985Z,6.10
2023-03-16T21:29:11.143Z,6.00
2023-03-16T21:31:38.059Z,5.90
2023-03-16T21:34:05.623Z,6.00
2023-03-16T21:36:32.373Z,5.90
2023-03-16T21:38:58.989Z,5.80
2023-03-16T21:41:25.731Z,5.80
2023-03-16T21:43:54.585Z,5.80
2023-03-16T21:46:22.495Z,5.80
2023-03-16T21:48:50.361Z,5.80
2023-03-16T21:51:18.916Z,5.70
2023-03-16T21:53:46.480Z,5.70
2023-03-16T21:56:15.979Z,5.60
2023-03-16T21:58:43.243Z,5.60
2023-03-16T22:01:30.184Z,5.50
2023-03-16T22:03:57.920Z,5.40
2023-03-16T22:06:25.685Z,5.30
2023-03-16T22:08:52.531Z,5.30
2023-03-16T22:11:20.560Z,5.40
2023-03-16T22:13:47.374Z,5.30
2023-03-16T22:16:15.882Z,5.30
2023-03-16T22:18:43.152Z,5.30
2023-03-16T22:21:20.135Z,5.30
2023-03-16T22:23:47.232Z,5.20
2023-03-16T22:26:16.284Z,5.20
2023-03-16T22:28:43.104Z,5.20
2023-03-16T22:31:13.193Z,5.20
2023-03-16T22:33:40.475Z,5.20
2023-03-16T22:36:09.301Z,5.20
2023-03-16T22:38:36.387Z,5.20
2023-03-16T22:41:03.137Z,5.20
2023-03-16T22:43:31.829Z,5.20
2023-03-16T22:45:59.142Z,5.20
2023-03-16T22:48:27.413Z,5.20
2023-03-16T22:50:54.622Z,5.20
2023-03-16T22:53:23.598Z,5.20
2023-03-16T22:55:51.280Z,5.20
2023-03-16T22:58:38.273Z,5.20
2023-03-16T23:01:22.918Z,5.10
2023-03-16T23:03:51.291Z,5.10
2023-03-16T23:06:20.330Z,5.10
2023-03-16T23:08:47.759Z,5.10
2023-03-16T23:11:17.121Z,5.10
2023-03-16T23:13:44.054Z,5.00
2023-03-16T23:16:24.643Z,5.10
2023-03-16T23:18:51.983Z,5.10
2023-03-16T23:21:20.742Z,5.10
2023-03-16T23:23:57.086Z,5.10
2023-03-16T23:26:27.879Z,5.10
2023-03-16T23:28:55.547Z,5.10
2023-03-16T23:31:23.678Z,5.20
2023-03-16T23:33:50.537Z,5.10
2023-03-16T23:36:18.527Z,5.20
2023-03-16T23:38:46.269Z,5.10
2023-03-16T23:41:13.891Z,5.10
2023-03-16T23:43:41.715Z,5.10
2023-03-16T23:46:12.909Z,5.20
2023-03-16T23:48:40.760Z,5.20
2023-03-16T23:51:07.750Z,5.20
2023-03-16T23:53:34.502Z,5.30
2023-03-16T23:56:01.725Z,5.30
2023-03-16T23:58:28.417Z,5.40
